createdAt,value
2023-09-28T00:01:49.645Z,100.00
2023-09-28T00:04:51.420Z,100.00
2023-09-28T00:07:54.168Z,100.00
2023-09-28T00:10:58.191Z,100.00
2023-09-28T00:13:59.913Z,100.00
2023-09-28T00:17:04.720Z,100.00
2023-09-28T00:20:10.943Z,100.00
2023-09-28T00:23:14.001Z,100.00
2023-09-28T00:26:18.009Z,100.00
2023-09-28T00:29:20.710Z,100.00
2023-09-28T00:32:22.825Z,100.00
2023-09-28T00:35:26.628Z,100.00
2023-09-28T00:38:28.413Z,100.00
2023-09-28T00:41:32.401Z,100.00
2023-09-28T00:44:35.034Z,100.00
2023-09-28T00:47:39.718Z,100.00
2023-09-28T00:50:41.593Z,100.00
2023-09-28T00:53:44.435Z,100.00
2023-09-28T00:56:49.743Z,100.00
2023-09-28T00:59:51.670Z,100.00
2023-09-28T01:02:56.832Z,100.00
2023-09-28T01:05:59.541Z,100.00
2023-09-28T01:09:01.188Z,100.00
2023-09-28T01:12:08.598Z,100.00
2023-09-28T01:15:13.001Z,100.00
2023-09-28T01:18:17.465Z,100.00
2023-09-28T01:21:20.190Z,100.00
2023-09-28T01:24:23.257Z,100.00
2023-09-28T01:27:25.901Z,100.00
2023-09-28T01:30:29.081Z,100.00
2023-09-28T01:33:31.277Z,100.00
2023-09-28T01:36:34.022Z,100.00
2023-09-28T01:39:37.055Z,100.00
2023-09-28T01:42:39.684Z,100.00
2023-09-28T01:45:42.364Z,100.00
2023-09-28T01:48:44.059Z,100.00
2023-09-28T01:51:46.722Z,100.00
2023-09-28T01:54:50.744Z,100.00
2023-09-28T01:57:52.448Z,100.00
2023-09-28T02:00:55.108Z,100.00
2023-09-28T02:03:57.773Z,100.00
2023-09-28T02:06:59.784Z,100.00
2023-09-28T02:10:03.786Z,100.00
2023-09-28T02:13:06.822Z,100.00
2023-09-28T02:16:12.553Z,100.00
2023-09-28T02:19:15.377Z,100.00
2023-09-28T02:22:18.025Z,100.00
2023-09-28T02:25:23.414Z,100.00
2023-09-28T02:28:25.100Z,100.00
2023-09-28T02:31:28.945Z,100.00
2023-09-28T02:34:35.018Z,100.00
2023-09-28T02:37:37.955Z,100.00
2023-09-28T02:40:41.990Z,100.00
2023-09-28T02:43:44.654Z,100.00
2023-09-28T02:46:46.417Z,100.00
2023-09-28T02:49:49.608Z,100.00
2023-09-28T02:52:53.844Z,100.00
2023-09-28T02:55:58.436Z,100.00
2023-09-28T02:59:00.936Z,100.00
2023-09-28T03:02:03.998Z,100.00
2023-09-28T03:05:08.178Z,100.00
2023-09-28T03:08:11.365Z,100.00
2023-09-28T03:11:16.687Z,100.00
2023-09-28T03:14:20.349Z,100.00
2023-09-28T03:17:22.075Z,100.00
2023-09-28T03:20:26.303Z,100.00
2023-09-28T03:23:28.020Z,100.00
2023-09-28T03:26:32.470Z,100.00
2023-09-28T03:29:35.125Z,100.00
2023-09-28T03:32:37.427Z,100.00
2023-09-28T03:35:40.149Z,100.00
2023-09-28T03:38:42.777Z,100.00
2023-09-28T03:41:46.761Z,100.00
2023-09-28T03:44:49.400Z,100.00
2023-09-28T03:47:53.741Z,100.00
2023-09-28T03:50:56.441Z,100.00
2023-09-28T03:53:59.353Z,100.00
2023-09-28T03:57:03.593Z,100.00
2023-09-28T04:00:09.985Z,100.00
2023-09-28T04:03:12.937Z,100.00
2023-09-28T04:06:15.564Z,100.00
2023-09-28T04:09:18.204Z,100.00
2023-09-28T04:12:22.185Z,100.00
2023-09-28T04:15:24.910Z,100.00
2023-09-28T04:18:28.129Z,100.00
2023-09-28T04:21:30.862Z,100.00
2023-09-28T04:24:33.472Z,100.00
2023-09-28T04:27:37.645Z,100.00
2023-09-28T04:30:40.334Z,100.00
2023-09-28T04:33:42.953Z,100.00
2023-09-28T04:36:46.113Z,100.00
2023-09-28T04:39:48.767Z,100.00
2023-09-28T04:42:52.742Z,100.00
2023-09-28T04:45:55.396Z,100.00
2023-09-28T04:48:58.057Z,100.00
2023-09-28T04:52:00.833Z,100.00
2023-09-28T04:55:05.140Z,100.00
2023-09-28T04:58:11.436Z,100.00
2023-09-28T05:01:14.214Z,100.00
2023-09-28T05:04:17.258Z,100.00
2023-09-28T05:07:19.924Z,100.00
2023-09-28T05:10:22.546Z,100.00
2023-09-28T05:13:30.483Z,100.00
2023-09-28T05:16:33.230Z,100.00
2023-09-28T05:19:35.928Z,100.00
2023-09-28T05:22:38.759Z,100.00
2023-09-28T05:25:41.424Z,100.00
2023-09-28T05:28:45.482Z,100.00
2023-09-28T05:31:48.624Z,100.00
2023-09-28T05:34:51.475Z,100.00
2023-09-28T05:37:54.178Z,100.00
2023-09-28T05:40:57.661Z,100.00
2023-09-28T05:44:01.903Z,100.00
2023-09-28T05:47:04.599Z,100.00
2023-09-28T05:50:09.401Z,100.00
2023-09-28T05:53:12.133Z,100.00
2023-09-28T05:56:14.857Z,100.00
2023-09-28T05:59:18.900Z,100.00
2023-09-28T06:02:24.069Z,100.00
2023-09-28T06:05:27.321Z,100.00
2023-09-28T06:08:30.020Z,100.00
2023-09-28T06:11:32.733Z,100.00
2023-09-28T06:14:37.143Z,100.00
2023-09-28T06:17:39.927Z,100.00
2023-09-28T06:20:42.977Z,100.00
2023-09-28T06:23:45.706Z,100.00
2023-09-28T06:26:50.059Z,100.00
2023-09-28T06:29:55.178Z,100.00
2023-09-28T06:32:58.151Z,100.00
2023-09-28T06:36:00.778Z,100.00
2023-09-28T06:39:04.711Z,100.00
2023-09-28T06:42:20.782Z,100.00
2023-09-28T06:45:30.437Z,100.00
2023-09-28T06:48:34.499Z,100.00
2023-09-28T06:51:38.264Z,100.00
2023-09-28T06:54:40.926Z,100.00
2023-09-28T06:57:43.589Z,100.00
2023-09-28T07:00:47.867Z,100.00
2023-09-28T07:03:54.472Z,100.00
2023-09-28T07:06:57.346Z,100.00
2023-09-28T07:10:00.033Z,100.00
2023-09-28T07:13:04.076Z,100.00
2023-09-28T07:16:09.069Z,100.00
2023-09-28T07:19:11.810Z,100.00
2023-09-28T07:22:16.607Z,100.00
2023-09-28T07:25:20.310Z,100.00
2023-09-28T07:28:23.145Z,100.00
2023-09-28T07:31:28.427Z,100.00
2023-09-28T07:34:31.328Z,100.00
2023-09-28T07:37:34.380Z,100.00
2023-09-28T07:43:47.369Z,100.00
2023-09-28T07:46:51.561Z,100.00
2023-09-28T07:49:54.449Z,100.00
2023-09-28T07:52:57.186Z,100.00
2023-09-28T07:55:59.915Z,100.00
2023-09-28T07:59:02.608Z,100.00
2023-09-28T08:02:06.685Z,100.00
2023-09-28T08:05:09.874Z,100.00
2023-09-28T08:08:16.862Z,100.00
2023-09-28T08:11:20.971Z,100.00
2023-09-28T08:14:23.635Z,100.00
2023-09-28T08:17:27.694Z,100.00
2023-09-28T08:20:31.918Z,100.00
2023-09-28T08:23:34.788Z,100.00
2023-09-28T08:26:37.516Z,100.00
2023-09-28T08:29:40.143Z,100.00
2023-09-28T08:32:44.317Z,100.00
2023-09-28T08:35:49.087Z,100.00
2023-09-28T08:38:52.147Z,100.00
2023-09-28T08:41:56.764Z,100.00
2023-09-28T08:45:03.422Z,100.00
2023-09-28T08:48:12.708Z,100.00
2023-09-28T08:51:16.755Z,100.00
2023-09-28T08:54:20.632Z,100.00
2023-09-28T08:57:23.418Z,100.00
2023-09-28T09:00:27.292Z,100.00
2023-09-28T09:03:34.101Z,100.00
2023-09-28T09:06:38.103Z,100.00
2023-09-28T09:09:43.228Z,100.00
2023-09-28T09:12:45.900Z,100.00
2023-09-28T09:15:50.339Z,100.00
2023-09-28T09:18:55.354Z,100.00
2023-09-28T09:21:58.625Z,100.00
2023-09-28T09:25:01.541Z,100.00
2023-09-28T09:28:05.627Z,100.00
2023-09-28T09:31:08.399Z,100.00
2023-09-28T09:34:18.847Z,100.00
2023-09-28T09:37:21.586Z,100.00
2023-09-28T09:40:24.372Z,100.00
2023-09-28T09:43:27.034Z,100.00
2023-09-28T09:46:29.724Z,100.00
2023-09-28T09:49:35.155Z,100.00
2023-09-28T09:52:38.517Z,100.00
2023-09-28T09:55:47.610Z,100.00
2023-09-28T09:58:57.997Z,100.00
2023-09-28T10:02:03.139Z,100.00
2023-09-28T10:05:10.009Z,99.66
2023-09-28T10:08:13.439Z,95.79
2023-09-28T10:11:17.554Z,96.55
2023-09-28T10:14:22.644Z,88.04
2023-09-28T10:17:27.285Z,83.77
2023-09-28T10:20:31.966Z,82.60
2023-09-28T10:23:34.751Z,78.53
2023-09-28T10:26:39.809Z,71.71
2023-09-28T10:29:43.105Z,70.32
2023-09-28T10:32:46.776Z,65.68
2023-09-28T10:35:50.848Z,63.13
2023-09-28T10:39:08.410Z,62.60
2023-09-28T10:42:14.357Z,60.80
2023-09-28T10:45:28.292Z,62.02
2023-09-28T10:48:33.979Z,60.28
2023-09-28T10:51:38.160Z,60.81
2023-09-28T10:54:41.010Z,61.29
2023-09-28T10:57:44.206Z,59.85
2023-09-28T11:00:46.848Z,57.35
2023-09-28T11:03:51.509Z,57.58
2023-09-28T11:06:56.962Z,63.41
2023-09-28T11:10:00.044Z,59.81
2023-09-28T11:13:03.087Z,58.97
2023-09-28T11:16:05.956Z,55.93
2023-09-28T11:19:10.808Z,58.16
2023-09-28T11:22:16.985Z,58.63
2023-09-28T11:25:34.861Z,56.47
2023-09-28T11:28:42.699Z,52.32
2023-09-28T11:31:51.631Z,51.82
2023-09-28T11:34:55.726Z,52.70
2023-09-28T11:38:04.135Z,54.89
2023-09-28T11:41:07.026Z,58.68
2023-09-28T11:44:09.737Z,55.62
2023-09-28T11:47:12.436Z,52.55
2023-09-28T11:50:15.384Z,54.28
2023-09-28T11:53:19.579Z,52.79
2023-09-28T11:56:22.777Z,50.27
2023-09-28T11:59:25.551Z,51.24
2023-09-28T12:02:29.741Z,54.02
2023-09-28T12:05:34.618Z,53.05
2023-09-28T12:08:39.080Z,55.67
2023-09-28T12:11:42.979Z,56.25
2023-09-28T12:14:45.898Z,57.63
2023-09-28T12:17:48.636Z,61.50
2023-09-28T12:20:51.361Z,59.64
2023-09-28T12:23:57.144Z,59.53
2023-09-28T12:27:02.140Z,57.91
2023-09-28T12:30:06.083Z,56.28
2023-09-28T12:33:09.758Z,55.65
2023-09-28T12:36:12.513Z,54.49
2023-09-28T12:39:22.683Z,55.04
2023-09-28T12:42:26.009Z,55.79
2023-09-28T12:45:28.961Z,55.04
2023-09-28T12:48:31.637Z,52.85
2023-09-28T12:51:34.425Z,52.65
2023-09-28T12:54:38.706Z,51.04
2023-09-28T12:57:41.453Z,52.94
2023-09-28T13:00:45.949Z,52.65
2023-09-28T13:03:50.914Z,52.54
2023-09-28T13:06:54.054Z,52.15
2023-09-28T13:09:58.030Z,52.53
2023-09-28T13:13:01.579Z,51.77
2023-09-28T13:16:06.922Z,51.80
2023-09-28T13:19:12.904Z,51.38
2023-09-28T13:22:15.651Z,52.05
2023-09-28T13:25:19.688Z,57.03
2023-09-28T13:28:22.749Z,59.14
2023-09-28T13:31:26.172Z,64.56
2023-09-28T13:34:28.976Z,67.51
2023-09-28T13:37:31.883Z,63.91
2023-09-28T13:40:36.445Z,67.97
2023-09-28T13:43:39.788Z,65.94
2023-09-28T13:46:42.504Z,66.73
2023-09-28T13:49:45.241Z,67.48
2023-09-28T13:52:48.078Z,68.80
2023-09-28T13:55:53.492Z,69.75
2023-09-28T13:58:56.144Z,71.22
2023-09-28T14:01:59.748Z,71.99
2023-09-28T14:05:02.566Z,72.72
2023-09-28T14:08:05.881Z,75.05
2023-09-28T14:11:12.798Z,76.53
2023-09-28T14:14:16.241Z,76.03
2023-09-28T14:17:28.408Z,76.11
2023-09-28T14:20:40.749Z,77.56
2023-09-28T14:23:43.727Z,78.80
2023-09-28T14:26:47.783Z,83.37
2023-09-28T14:29:50.507Z,83.39
2023-09-28T14:32:53.608Z,89.98
2023-09-28T14:35:56.982Z,89.10
2023-09-28T14:39:00.257Z,82.63
2023-09-28T14:42:05.900Z,86.46
2023-09-28T14:45:10.297Z,80.35
2023-09-28T14:48:13.471Z,89.43
2023-09-28T14:51:17.643Z,86.52
2023-09-28T14:54:20.353Z,88.06
2023-09-28T14:57:25.313Z,93.29
2023-09-28T15:00:27.964Z,98.84
2023-09-28T15:03:32.048Z,93.18
2023-09-28T15:06:35.055Z,95.92
2023-09-28T15:09:38.018Z,96.48
2023-09-28T15:12:42.055Z,99.22
2023-09-28T15:15:44.789Z,100.00
2023-09-28T15:18:47.771Z,100.00
2023-09-28T15:21:50.851Z,100.00
2023-09-28T15:24:53.910Z,100.00
2023-09-28T15:27:57.939Z,100.00
2023-09-28T15:31:01.674Z,100.00
2023-09-28T15:34:04.521Z,100.00
2023-09-28T15:37:07.178Z,100.00
2023-09-28T15:40:10.577Z,100.00
2023-09-28T15:43:14.707Z,100.00
2023-09-28T15:46:21.747Z,100.00
2023-09-28T15:49:24.412Z,100.00
2023-09-28T15:52:27.044Z,100.00
2023-09-28T15:55:29.688Z,100.00
2023-09-28T15:58:34.730Z,100.00
2023-09-28T16:01:38.649Z,100.00
2023-09-28T16:04:41.320Z,100.00
2023-09-28T16:07:43.973Z,100.00
2023-09-28T16:10:47.499Z,100.00
2023-09-28T16:13:51.519Z,100.00
2023-09-28T16:16:54.184Z,100.00
2023-09-28T16:19:56.828Z,100.00
2023-09-28T16:22:59.452Z,100.00
2023-09-28T16:26:02.086Z,100.00
2023-09-28T16:29:06.312Z,100.00
2023-09-28T16:32:09.217Z,100.00
2023-09-28T16:35:12.183Z,100.00
2023-09-28T16:38:14.954Z,100.00
2023-09-28T16:41:18.334Z,100.00
2023-09-28T16:44:22.725Z,100.00
2023-09-28T16:47:25.453Z,100.00
2023-09-28T16:50:29.289Z,100.00
2023-09-28T16:53:32.107Z,100.00
2023-09-28T16:56:35.069Z,100.00
2023-09-28T16:59:39.210Z,100.00
2023-09-28T17:02:42.167Z,100.00
2023-09-28T17:05:45.068Z,100.00
2023-09-28T17:08:49.407Z,100.00
2023-09-28T17:11:52.250Z,100.00
2023-09-28T17:14:56.359Z,100.00
2023-09-28T17:18:10.124Z,100.00
2023-09-28T17:21:21.278Z,100.00
2023-09-28T17:24:24.029Z,100.00
2023-09-28T17:27:26.917Z,100.00
2023-09-28T17:30:31.134Z,100.00
2023-09-28T17:33:33.904Z,100.00
2023-09-28T17:36:36.705Z,100.00
2023-09-28T17:39:39.439Z,100.00
2023-09-28T17:42:42.198Z,100.00
2023-09-28T17:45:48.533Z,100.00
2023-09-28T17:48:51.560Z,100.00
2023-09-28T17:51:54.241Z,100.00
2023-09-28T17:54:58.576Z,100.00
2023-09-28T17:58:01.317Z,100.00
2023-09-28T18:01:05.522Z,100.00
2023-09-28T18:04:08.375Z,100.00
2023-09-28T18:07:11.293Z,100.00
2023-09-28T18:10:15.539Z,100.00
2023-09-28T18:13:18.284Z,100.00
2023-09-28T18:16:22.441Z,100.00
2023-09-28T18:19:25.205Z,100.00
2023-09-28T18:22:27.850Z,100.00
2023-09-28T18:25:30.548Z,100.00
2023-09-28T18:28:37.376Z,100.00
2023-09-28T18:31:41.847Z,100.00
2023-09-28T18:34:44.606Z,100.00
2023-09-28T18:37:47.759Z,100.00
2023-09-28T18:40:50.500Z,100.00
2023-09-28T18:43:53.620Z,100.00
2023-09-28T18:46:58.662Z,100.00
2023-09-28T18:50:01.423Z,100.00
2023-09-28T18:53:05.149Z,100.00
2023-09-28T18:56:09.383Z,100.00
2023-09-28T18:59:12.298Z,100.00
2023-09-28T19:02:16.513Z,100.00
2023-09-28T19:05:19.790Z,100.00
2023-09-28T19:08:23.662Z,100.00
2023-09-28T19:11:26.836Z,100.00
2023-09-28T19:14:29.643Z,100.00
2023-09-28T19:17:33.978Z,100.00
2023-09-28T19:20:36.810Z,100.00
2023-09-28T19:23:39.635Z,100.00
2023-09-28T19:26:42.428Z,100.00
2023-09-28T19:29:45.186Z,100.00
2023-09-28T19:32:49.368Z,100.00
2023-09-28T19:35:52.444Z,100.00
2023-09-28T19:38:55.191Z,100.00
2023-09-28T19:41:58.214Z,100.00
2023-09-28T19:45:00.886Z,100.00
2023-09-28T19:48:05.941Z,100.00
2023-09-28T19:51:09.834Z,100.00
2023-09-28T19:54:12.565Z,100.00
2023-09-28T19:57:15.234Z,100.00
2023-09-28T20:00:18.772Z,100.00
2023-09-28T20:03:22.885Z,100.00
2023-09-28T20:06:27.157Z,100.00
2023-09-28T20:09:32.306Z,100.00
2023-09-28T20:12:35.515Z,100.00
2023-09-28T20:15:38.337Z,100.00
2023-09-28T20:18:42.479Z,100.00
2023-09-28T20:21:45.240Z,100.00
2023-09-28T20:24:48.229Z,100.00
2023-09-28T20:27:50.894Z,100.00
2023-09-28T20:30:53.659Z,100.00
2023-09-28T20:33:57.951Z,100.00
2023-09-28T20:37:00.642Z,100.00
2023-09-28T20:40:03.501Z,100.00
2023-09-28T20:43:06.381Z,100.00
2023-09-28T20:46:15.836Z,100.00
2023-09-28T20:49:19.937Z,100.00
2023-09-28T20:52:22.657Z,100.00
2023-09-28T20:55:25.761Z,100.00
2023-09-28T20:58:28.556Z,100.00
2023-09-28T21:01:31.338Z,100.00
2023-09-28T21:04:35.867Z,100.00
2023-09-28T21:07:44.881Z,100.00
2023-09-28T21:10:48.466Z,100.00
2023-09-28T21:13:51.142Z,100.00
2023-09-28T21:16:53.882Z,100.00
2023-09-28T21:19:57.931Z,100.00
2023-09-28T21:23:00.635Z,100.00
2023-09-28T21:26:03.352Z,100.00
2023-09-28T21:29:06.212Z,100.00
2023-09-28T21:32:09.273Z,100.00
2023-09-28T21:35:13.354Z,100.00
2023-09-28T21:38:15.996Z,100.00
2023-09-28T21:41:18.832Z,100.00
2023-09-28T21:44:21.577Z,100.00
2023-09-28T21:47:24.318Z,100.00
2023-09-28T21:50:28.458Z,100.00
2023-09-28T21:53:31.377Z,100.00
2023-09-28T21:56:34.128Z,100.00
2023-09-28T21:59:36.931Z,100.00
2023-09-28T22:02:40.783Z,100.00
2023-09-28T22:05:45.298Z,100.00
2023-09-28T22:08:48.088Z,100.00
2023-09-28T22:11:53.078Z,100.00
2023-09-28T22:14:55.918Z,100.00
2023-09-28T22:17:58.750Z,100.00
2023-09-28T22:21:03.088Z,100.00
2023-09-28T22:24:07.920Z,100.00
2023-09-28T22:27:10.628Z,100.00
2023-09-28T22:30:13.720Z,100.00
2023-09-28T22:33:16.588Z,100.00
2023-09-28T22:36:20.729Z,100.00
2023-09-28T22:39:23.435Z,100.00
2023-09-28T22:42:26.157Z,100.00
2023-09-28T22:45:28.883Z,100.00
2023-09-28T22:48:31.561Z,100.00
2023-09-28T22:51:35.611Z,100.00
2023-09-28T22:54:39.231Z,100.00
2023-09-28T22:57:42.009Z,100.00
2023-09-28T23:00:44.754Z,100.00
2023-09-28T23:03:47.523Z,100.00
2023-09-28T23:06:51.627Z,100.00
2023-09-28T23:09:54.447Z,100.00
2023-09-28T23:12:57.280Z,100.00
2023-09-28T23:16:00.470Z,100.00
2023-09-28T23:19:03.896Z,100.00
2023-09-28T23:22:08.082Z,100.00
2023-09-28T23:25:14.275Z,100.00
2023-09-28T23:28:17.526Z,100.00
2023-09-28T23:31:20.458Z,100.00
2023-09-28T23:34:24.643Z,100.00
2023-09-28T23:37:28.873Z,100.00
2023-09-28T23:40:31.578Z,100.00
2023-09-28T23:43:35.032Z,100.00
2023-09-28T23:46:40.815Z,100.00
2023-09-28T23:49:43.646Z,100.00
2023-09-28T23:52:48.944Z,100.00
2023-09-28T23:55:51.631Z,100.00
2023-09-28T23:58:55.083Z,100.00
